Mount Washington, Ohio
Current Conditions -  °F | °C
As of 1:00 PM on Monday 26 Jan 2015 (Local Time) from KLUK Reporting Station
Scattered Clouds Scattered Clouds  
Wind Chill: 18°   Ceiling: Unl
Heat Index: 27°   Visibility: 10mi
Dew Point: 18°   Wind: 9mph
Humidity: 69%   Direction: 310°NW
Pressure: 29.93"   Gusts: NA
Location:  39.077°N, 84.3859°W
Report Text: KLUK 261800Z 31008KT 10SM SCT022 M03/M08 A2993 RMK AO2 T10281078
Loading
Personal Weather Stations






























Interactive Weather Map New forecast layout! Learn more

10-Day Weather Forecast

Advertisements
Track Severe Weather on mobile